Time;durP1;ratioP1;P1;durP2;ratioP2;P2;SDS_P1;SDS_P2;PMS_P1;PMS_P2;Temp;Humidity;BMP_temperature;BMP_pressure;BME280_temperature;BME280_humidity;BME280_pressure;Samples;Min_cycle;Max_cycle;Signal;HPM_P1;HPM_P2
2021/06/26 00:00:08;;;;;;;6.47;5.45;;;;;;;14.56;92.93;101182.91;5030829;28;20044;-84
2021/06/26 00:02:40;;;;;;;6.97;5.28;;;;;;;14.55;92.05;101181.16;5037384;28;20051;-84
2021/06/26 00:05:12;;;;;;;6.22;5.63;;;;;;;14.54;92.04;101184.69;5071719;28;20040;-83
2021/06/26 00:07:44;;;;;;;6.30;5.57;;;;;;;14.53;91.72;101190.94;5060998;28;20115;-82
2021/06/26 00:10:15;;;;;;;6.50;5.32;;;;;;;14.44;92.78;101190.28;5053518;28;20504;-82
2021/06/26 00:12:41;;;;;;;6.82;5.65;;;;;;;14.40;93.41;101186.00;5037502;28;20094;-82
2021/06/26 00:15:11;;;;;;;6.40;5.10;;;;;;;14.29;93.88;101187.16;5067705;28;20040;-82
2021/06/26 00:17:40;;;;;;;6.65;5.60;;;;;;;14.28;93.33;101181.88;5068201;28;20648;-83
2021/06/26 00:20:10;;;;;;;7.05;5.30;;;;;;;14.20;93.31;101189.19;5052139;28;20041;-83
2021/06/26 00:22:36;;;;;;;7.10;5.53;;;;;;;14.10;93.71;101191.22;5079259;28;20617;-84
2021/06/26 00:25:10;;;;;;;6.82;5.90;;;;;;;14.05;94.37;101187.81;5059757;28;20040;-83
2021/06/26 00:27:41;;;;;;;7.47;5.40;;;;;;;13.99;94.36;101183.53;5048337;28;20041;-84
2021/06/26 00:30:09;;;;;;;6.53;5.70;;;;;;;13.95;94.43;101183.63;5035984;28;20091;-83
2021/06/26 00:32:38;;;;;;;7.80;5.57;;;;;;;13.89;95.07;101186.47;5038702;28;20177;-84
2021/06/26 00:35:06;;;;;;;6.57;5.63;;;;;;;13.82;95.55;101175.13;5052101;28;20041;-84
2021/06/26 00:37:32;;;;;;;7.45;6.07;;;;;;;13.83;95.12;101178.66;5037191;28;20056;-83
2021/06/26 00:39:59;;;;;;;7.80;6.07;;;;;;;13.79;95.14;101176.09;5052576;28;20044;-83
2021/06/26 00:42:31;;;;;;;8.43;6.30;;;;;;;13.80;95.21;101185.81;5040827;28;20095;-84
2021/06/26 00:44:57;;;;;;;7.25;6.18;;;;;;;13.65;96.23;101190.63;5065610;28;20037;-85
2021/06/26 00:47:24;;;;;;;6.32;5.53;;;;;;;13.61;96.46;101194.25;5045862;28;20541;-83
2021/06/26 00:49:56;;;;;;;7.22;5.95;;;;;;;13.64;95.37;101194.19;5040189;28;20043;-86
2021/06/26 00:52:24;;;;;;;7.65;5.60;;;;;;;13.57;96.07;101192.59;5038668;28;20079;-84
2021/06/26 00:54:52;;;;;;;8.00;6.15;;;;;;;13.52;96.30;101190.91;5053473;28;20123;-84
2021/06/26 00:57:20;;;;;;;7.18;6.25;;;;;;;13.42;96.98;101199.13;5051392;28;20052;-83
2021/06/26 00:59:47;;;;;;;7.60;6.00;;;;;;;13.38;97.05;101192.16;5048566;28;20061;-85
2021/06/26 01:02:14;;;;;;;6.60;5.90;;;;;;;13.38;96.62;101193.03;5051492;28;20049;-84
2021/06/26 01:04:40;;;;;;;6.78;5.78;;;;;;;13.35;96.41;101192.22;5040332;28;20044;-83
2021/06/26 01:07:07;;;;;;;7.70;5.90;;;;;;;13.27;97.37;101188.88;5039854;28;20045;-83
2021/06/26 01:09:34;;;;;;;6.43;5.68;;;;;;;13.22;98.02;101199.59;5042909;28;20096;-84
2021/06/26 01:12:06;;;;;;;7.40;5.90;;;;;;;13.23;97.01;101193.38;5040722;28;20401;-83
2021/06/26 01:14:33;;;;;;;7.50;5.75;;;;;;;13.17;96.92;101199.66;5071719;28;20044;-83
2021/06/26 01:17:05;;;;;;;7.15;6.25;;;;;;;13.10;97.63;101183.91;5051754;28;20036;-83
2021/06/26 01:19:31;;;;;;;7.20;6.15;;;;;;;13.04;98.12;101181.41;5055124;28;20048;-82
2021/06/26 01:21:59;;;;;;;8.23;6.10;;;;;;;13.08;96.93;101177.78;5035924;28;20106;-85
2021/06/26 01:24:26;;;;;;;8.25;6.32;;;;;;;13.02;97.23;101169.94;5039705;28;20699;-83
2021/06/26 01:26:57;;;;;;;8.27;6.22;;;;;;;13.00;96.67;101175.28;5037412;28;20525;-83
2021/06/26 01:29:27;;;;;;;7.10;5.60;;;;;;;12.95;97.53;101180.72;5042703;28;20040;-83
2021/06/26 01:31:54;;;;;;;8.13;6.47;;;;;;;12.88;97.92;101171.13;5040850;28;20044;-82
2021/06/26 01:34:21;;;;;;;7.65;5.82;;;;;;;12.84;98.13;101182.69;5050499;28;20045;-83
2021/06/26 01:36:47;;;;;;;7.55;5.95;;;;;;;12.84;97.95;101185.34;5038041;28;20578;-83
2021/06/26 01:39:14;;;;;;;8.35;6.68;;;;;;;12.76;98.56;101189.06;5042920;28;20440;-82
2021/06/26 01:41:41;;;;;;;8.52;6.47;;;;;;;12.72;99.05;101187.41;5029719;28;20087;-83
2021/06/26 01:44:08;;;;;;;6.72;5.72;;;;;;;12.79;97.24;101191.69;5034449;28;20045;-82
2021/06/26 01:46:38;;;;;;;8.88;6.45;;;;;;;12.68;98.12;101187.44;5054995;28;20041;-82
2021/06/26 01:49:10;;;;;;;8.82;6.50;;;;;;;12.59;99.34;101192.06;5034183;28;20041;-82
2021/06/26 01:51:38;;;;;;;6.85;6.15;;;;;;;12.61;97.57;101193.81;5049932;28;20124;-85
2021/06/26 01:54:06;;;;;;;7.15;6.13;;;;;;;12.55;98.14;101193.94;5036959;28;20043;-84
2021/06/26 01:56:33;;;;;;;6.38;5.78;;;;;;;12.51;99.63;101194.00;5047995;28;20092;-83
2021/06/26 01:58:59;;;;;;;7.90;6.07;;;;;;;12.48;98.46;101187.00;5041087;28;20521;-83
2021/06/26 02:01:26;;;;;;;7.63;6.00;;;;;;;12.45;98.84;101191.50;5068910;28;20052;-83
2021/06/26 02:03:53;;;;;;;6.43;5.63;;;;;;;12.36;99.49;101196.06;5071060;28;20106;-82
2021/06/26 02:06:19;;;;;;;7.20;6.25;;;;;;;12.34;99.55;101192.56;5035938;28;20040;-82
2021/06/26 02:08:46;;;;;;;7.25;6.05;;;;;;;12.37;98.82;101199.59;5055465;28;20048;-83
2021/06/26 02:11:13;;;;;;;6.55;5.65;;;;;;;12.34;98.04;101192.56;5036553;28;20044;-83
2021/06/26 02:13:39;;;;;;;7.75;6.53;;;;;;;12.29;99.07;101193.56;5031017;28;20055;-84
2021/06/26 02:16:06;;;;;;;9.75;6.68;;;;;;;12.26;98.64;101197.13;5033946;28;20567;-82
2021/06/26 02:18:33;;;;;;;6.57;5.80;;;;;;;12.22;98.63;101191.94;5020535;28;20048;-83
2021/06/26 02:21:00;;;;;;;7.22;5.72;;;;;;;12.24;98.40;101198.06;5036028;28;20563;-83
2021/06/26 02:23:27;;;;;;;8.38;5.80;;;;;;;12.15;98.31;101193.81;5049303;28;20064;-82
2021/06/26 02:25:54;;;;;;;7.40;6.45;;;;;;;12.10;99.32;101199.19;5045783;28;20045;-83
2021/06/26 02:28:21;;;;;;;8.88;5.38;;;;;;;12.09;99.25;101192.13;5049419;28;20051;-82
2021/06/26 02:30:48;;;;;;;7.43;6.18;;;;;;;12.13;98.88;101202.69;5043033;28;20045;-84
2021/06/26 02:33:14;;;;;;;8.02;6.43;;;;;;;12.11;100.00;101205.38;5046346;28;20048;-83
2021/06/26 02:35:41;;;;;;;7.20;6.40;;;;;;;12.06;100.00;101196.63;5041644;28;20043;-82
2021/06/26 02:38:08;;;;;;;7.82;6.60;;;;;;;12.02;100.00;101206.41;5038688;28;20045;-84
2021/06/26 02:40:34;;;;;;;7.50;6.43;;;;;;;11.98;100.00;101202.06;5065322;28;20101;-83
2021/06/26 02:43:02;;;;;;;6.55;5.85;;;;;;;11.92;100.00;101203.94;5068683;28;20048;-82
2021/06/26 02:45:29;;;;;;;7.97;5.82;;;;;;;11.86;100.00;101204.94;5039978;28;20045;-82
2021/06/26 02:47:55;;;;;;;6.93;5.75;;;;;;;11.87;100.00;101213.75;5048441;28;20041;-82
2021/06/26 02:50:22;;;;;;;6.68;5.68;;;;;;;11.82;100.00;101206.75;5031081;28;20033;-82
2021/06/26 02:52:49;;;;;;;8.13;6.10;;;;;;;11.79;100.00;101205.91;5025305;28;20514;-83
2021/06/26 02:55:16;;;;;;;7.57;6.28;;;;;;;11.80;100.00;101210.31;5051565;28;20133;-82
2021/06/26 02:57:43;;;;;;;8.10;6.57;;;;;;;11.84;100.00;101210.22;5063907;28;20044;-82
2021/06/26 03:00:11;;;;;;;6.80;6.10;;;;;;;11.91;100.00;101220.72;5030846;28;20450;-83
2021/06/26 03:02:40;;;;;;;10.02;6.70;;;;;;;11.98;99.76;101219.72;5052574;28;20137;-83
2021/06/26 03:05:07;;;;;;;7.15;6.03;;;;;;;11.94;100.00;101218.91;5032761;28;20728;-83
2021/06/26 03:07:33;;;;;;;9.10;6.57;;;;;;;11.92;100.00;101217.16;5032548;28;20045;-82
2021/06/26 03:10:00;;;;;;;7.40;6.07;;;;;;;11.92;100.00;101211.88;5051369;28;20445;-82
2021/06/26 03:12:27;;;;;;;6.72;6.03;;;;;;;11.93;100.00;101222.44;5064798;28;20073;-80
2021/06/26 03:14:53;;;;;;;6.75;5.95;;;;;;;11.92;100.00;101217.16;5034427;28;20043;-82
2021/06/26 03:17:20;;;;;;;8.05;6.07;;;;;;;11.92;100.00;101223.34;5072310;28;20040;-80
2021/06/26 03:19:47;;;;;;;6.80;5.90;;;;;;;11.93;100.00;101226.84;5057578;28;20044;-80
2021/06/26 03:22:13;;;;;;;9.15;6.25;;;;;;;11.95;100.00;101240.97;5030877;28;20883;-82
2021/06/26 03:24:40;;;;;;;8.93;6.20;;;;;;;11.97;100.00;101231.22;5018580;28;20044;-80
2021/06/26 03:27:06;;;;;;;7.85;5.85;;;;;;;11.95;100.00;101233.03;5047702;28;20044;-79
2021/06/26 03:29:33;;;;;;;7.70;6.50;;;;;;;11.98;100.00;101235.63;5034020;28;20052;-82
2021/06/26 03:32:00;;;;;;;6.93;6.03;;;;;;;12.05;100.00;101239.91;5044378;28;20136;-82
2021/06/26 03:34:26;;;;;;;8.52;6.43;;;;;;;12.13;100.00;101238.00;5066541;28;20048;-83
2021/06/26 03:36:53;;;;;;;9.68;6.50;;;;;;;12.16;100.00;101243.22;5075525;28;20094;-82
2021/06/26 03:39:20;;;;;;;7.75;6.60;;;;;;;12.18;100.00;101233.47;5055832;28;20067;-82
2021/06/26 03:41:50;;;;;;;7.82;6.70;;;;;;;12.23;100.00;101236.06;5028642;28;20099;-84
2021/06/26 03:44:17;;;;;;;10.50;6.35;;;;;;;12.26;100.00;101236.88;5046291;28;20097;-82
2021/06/26 03:46:43;;;;;;;8.30;6.85;;;;;;;12.29;100.00;101242.13;5034407;28;20045;-83
2021/06/26 03:49:10;;;;;;;8.38;6.03;;;;;;;12.33;100.00;101238.50;5032244;28;20045;-84
2021/06/26 03:51:37;;;;;;;8.88;6.70;;;;;;;12.38;100.00;101239.31;5036302;28;20041;-82
2021/06/26 03:54:07;;;;;;;8.95;6.47;;;;;;;12.42;100.00;101248.06;5043076;28;20111;-82
2021/06/26 03:56:34;;;;;;;7.22;6.47;;;;;;;12.48;100.00;101244.44;5024874;28;20044;-84
2021/06/26 03:59:02;;;;;;;7.63;6.65;;;;;;;12.56;100.00;101248.69;5036609;28;20041;-80
2021/06/26 04:01:29;;;;;;;7.75;6.55;;;;;;;12.66;100.00;101242.28;5065528;28;20040;-83
2021/06/26 04:03:55;;;;;;;8.20;6.75;;;;;;;12.73;100.00;101255.44;5071122;28;20139;-79
2021/06/26 04:06:22;;;;;;;7.75;6.70;;;;;;;12.73;100.00;101245.69;5050666;28;20563;-80
2021/06/26 04:08:49;;;;;;;8.13;6.18;;;;;;;12.77;100.00;101249.16;5021571;28;20094;-80
2021/06/26 04:11:15;;;;;;;7.75;5.65;;;;;;;12.85;100.00;101250.75;5049080;28;20076;-80
2021/06/26 04:13:43;;;;;;;6.55;5.35;;;;;;;12.92;100.00;101246.19;5073368;28;20040;-79
2021/06/26 04:16:10;;;;;;;8.25;6.20;;;;;;;12.93;100.00;101248.81;5046095;28;20125;-79
2021/06/26 04:18:37;;;;;;;7.60;6.30;;;;;;;13.02;100.00;101244.22;5053607;28;20044;-81
2021/06/26 04:21:03;;;;;;;7.30;6.22;;;;;;;13.13;100.00;101248.41;5053891;28;20095;-80
2021/06/26 04:23:30;;;;;;;7.03;6.25;;;;;;;13.25;100.00;101252.59;5073709;28;20056;-78
2021/06/26 04:25:57;;;;;;;7.30;6.20;;;;;;;13.33;100.00;101247.97;5066846;28;20513;-80
2021/06/26 04:28:23;;;;;;;7.88;6.75;;;;;;;13.38;100.00;101251.41;5079863;28;20113;-82
2021/06/26 04:30:50;;;;;;;7.38;6.57;;;;;;;13.52;100.00;101257.25;5069398;28;20053;-82
2021/06/26 04:33:17;;;;;;;7.45;5.85;;;;;;;13.59;100.00;101257.13;5039142;28;20075;-79
2021/06/26 04:35:44;;;;;;;6.32;5.65;;;;;;;13.75;100.00;101258.53;5070962;28;20098;-80
2021/06/26 04:38:10;;;;;;;7.20;5.85;;;;;;;13.90;100.00;101254.63;5053386;28;20040;-81
2021/06/26 04:40:37;;;;;;;8.85;5.57;;;;;;;13.97;100.00;101250.91;5061629;28;20564;-81
2021/06/26 04:43:04;;;;;;;6.70;5.53;;;;;;;14.11;100.00;101258.50;5064712;28;20049;-81
2021/06/26 04:45:31;;;;;;;6.70;5.53;;;;;;;14.16;100.00;101251.31;5053388;28;20138;-80
2021/06/26 04:48:00;;;;;;;5.88;5.28;;;;;;;14.24;100.00;101255.50;5072269;28;20537;-80
2021/06/26 04:50:27;;;;;;;7.72;5.90;;;;;;;14.34;100.00;101257.00;5062594;28;20179;-78
2021/06/26 04:52:55;;;;;;;7.25;5.95;;;;;;;14.41;100.00;101251.53;5078195;28;20136;-78
2021/06/26 04:55:22;;;;;;;6.07;5.30;;;;;;;14.46;100.00;101262.94;5049267;28;20547;-78
2021/06/26 04:57:48;;;;;;;7.10;6.40;;;;;;;14.55;100.00;101258.25;5046837;28;20052;-80
2021/06/26 05:00:15;;;;;;;7.53;6.10;;;;;;;14.72;100.00;101263.13;5063690;28;20494;-79
2021/06/26 05:02:42;;;;;;;6.32;5.72;;;;;;;14.85;100.00;101260.97;5066885;28;20090;-80
2021/06/26 05:05:10;;;;;;;7.05;5.93;;;;;;;15.03;99.49;101265.75;5061251;28;20039;-79
2021/06/26 05:07:36;;;;;;;7.00;5.32;;;;;;;15.18;99.43;101270.63;5051757;28;20091;-80
2021/06/26 05:10:03;;;;;;;7.88;6.15;;;;;;;15.28;98.87;101265.91;5057619;28;20069;-79
2021/06/26 05:12:30;;;;;;;7.43;5.78;;;;;;;15.38;97.00;101269.16;5046150;28;20064;-79
2021/06/26 05:14:57;;;;;;;8.55;6.32;;;;;;;15.53;97.79;101271.34;5049639;28;20049;-79
2021/06/26 05:17:23;;;;;;;8.10;7.03;;;;;;;15.62;97.89;101270.22;5048196;28;20045;-78
2021/06/26 05:19:50;;;;;;;9.10;6.70;;;;;;;15.73;97.55;101274.31;5068515;28;20131;-79
2021/06/26 05:22:17;;;;;;;6.75;5.93;;;;;;;15.88;98.28;101274.69;5053939;28;20043;-80
2021/06/26 05:24:43;;;;;;;7.63;6.13;;;;;;;16.10;97.68;101274.88;5035347;28;20084;-78
2021/06/26 05:27:10;;;;;;;9.18;6.28;;;;;;;16.17;98.34;101271.97;5046556;28;20041;-80
2021/06/26 05:29:42;;;;;;;8.02;6.20;;;;;;;16.25;98.24;101269.91;5068832;28;20040;-79
2021/06/26 05:32:09;;;;;;;9.63;6.07;;;;;;;16.30;98.75;101270.59;5043392;28;20049;-81
2021/06/26 05:34:39;;;;;;;6.80;6.10;;;;;;;16.39;99.14;101274.75;5058221;28;20105;-80
2021/06/26 05:37:06;;;;;;;7.38;6.63;;;;;;;16.49;99.74;101272.66;5060266;28;20627;-80
2021/06/26 05:39:33;;;;;;;6.43;5.55;;;;;;;16.58;100.00;101262.53;5044838;28;20045;-80
2021/06/26 05:41:59;;;;;;;6.50;5.80;;;;;;;16.76;98.83;101260.16;5052484;28;20048;-80
2021/06/26 05:44:26;;;;;;;7.05;5.90;;;;;;;17.00;98.92;101259.25;5071628;28;20041;-81
2021/06/26 05:46:53;;;;;;;7.50;6.50;;;;;;;18.00;93.54;101262.41;5051771;28;20080;-78
2021/06/26 05:49:19;;;;;;;5.60;5.05;;;;;;;19.59;85.91;101257.97;5052158;28;20040;-83
2021/06/26 05:51:46;;;;;;;7.07;6.20;;;;;;;20.78;74.24;101251.91;5034305;28;20152;-81
2021/06/26 05:54:13;;;;;;;7.07;5.07;;;;;;;20.95;73.29;101255.50;5068750;28;20044;-84
2021/06/26 05:56:39;;;;;;;6.05;5.43;;;;;;;20.75;72.93;101265.47;5036485;28;20064;-81
2021/06/26 05:59:06;;;;;;;5.50;5.00;;;;;;;20.54;74.03;101274.69;5069185;28;20123;-82
2021/06/26 06:01:33;;;;;;;5.70;5.07;;;;;;;20.07;75.88;101267.22;5034063;28;20106;-81
2021/06/26 06:03:59;;;;;;;6.05;5.03;;;;;;;19.83;78.00;101265.75;5052205;28;20040;-86
2021/06/26 06:06:26;;;;;;;7.15;5.57;;;;;;;19.46;79.51;101262.16;5041521;28;20076;-87
2021/06/26 06:08:53;;;;;;;7.63;5.32;;;;;;;19.16;81.08;101268.94;5042367;28;20090;-80
2021/06/26 06:11:19;;;;;;;5.43;4.93;;;;;;;18.92;83.68;101265.56;5052348;28;20757;-80
2021/06/26 06:13:46;;;;;;;8.35;5.70;;;;;;;19.02;86.00;101270.47;5065810;28;20226;-78
2021/06/26 06:16:13;;;;;;;5.78;5.10;;;;;;;19.18;84.33;101272.44;5067594;28;20557;-80
2021/06/26 06:18:39;;;;;;;7.85;6.15;;;;;;;19.42;83.68;101268.56;5063844;28;20041;-80
2021/06/26 06:21:06;;;;;;;7.40;6.60;;;;;;;19.87;80.52;101278.06;5056246;28;20036;-85
2021/06/26 06:23:33;;;;;;;10.98;7.18;;;;;;;20.36;79.49;101265.75;5049227;28;20051;-85
2021/06/26 06:25:59;;;;;;;6.63;5.90;;;;;;;20.77;73.93;101263.59;5050155;28;20040;-81
2021/06/26 06:28:26;;;;;;;7.72;6.00;;;;;;;21.20;71.43;101266.66;5047671;28;20078;-82
2021/06/26 06:30:53;;;;;;;6.38;5.72;;;;;;;21.47;67.19;101260.72;5030871;28;20048;-82
2021/06/26 06:33:21;;;;;;;7.10;5.50;;;;;;;21.62;69.35;101274.16;5035687;28;20505;-82
2021/06/26 06:35:48;;;;;;;6.45;5.85;;;;;;;21.90;65.43;101276.13;5062589;28;20139;-82
2021/06/26 06:38:14;;;;;;;8.02;6.10;;;;;;;22.17;63.58;101270.13;5051504;28;20060;-83
2021/06/26 06:40:44;;;;;;;8.45;6.90;;;;;;;22.29;62.14;101274.78;5034482;28;20128;-82
2021/06/26 06:43:11;;;;;;;10.40;6.68;;;;;;;21.95;62.00;101283.94;5047623;28;20165;-84
2021/06/26 06:45:38;;;;;;;7.80;6.07;;;;;;;22.03;63.32;101279.00;5046624;28;20145;-84
2021/06/26 06:48:05;;;;;;;7.90;5.72;;;;;;;22.17;66.41;101278.19;5017494;28;20060;-82
2021/06/26 06:50:31;;;;;;;7.18;6.00;;;;;;;22.19;61.12;101281.66;5032134;28;20049;-84
2021/06/26 06:53:01;;;;;;;6.95;5.88;;;;;;;22.01;61.43;101282.69;5030273;28;20041;-82
2021/06/26 06:55:28;;;;;;;5.32;4.82;;;;;;;21.91;65.22;101285.94;5042709;28;20748;-82
2021/06/26 06:57:56;;;;;;;5.82;5.22;;;;;;;22.01;63.66;101282.69;5053480;28;20139;-83
2021/06/26 07:00:23;;;;;;;5.97;5.15;;;;;;;22.19;61.94;101285.22;5034994;28;20040;-82
2021/06/26 07:02:50;;;;;;;7.38;6.13;;;;;;;22.26;59.80;101282.16;5046888;28;20387;-83
2021/06/26 07:05:16;;;;;;;7.22;4.97;;;;;;;22.24;60.40;101278.69;5015940;28;20049;-83
2021/06/26 07:07:43;;;;;;;6.93;5.40;;;;;;;22.22;60.37;101280.63;5031997;28;20056;-82
2021/06/26 07:10:10;;;;;;;6.38;5.70;;;;;;;22.48;58.14;101286.19;5025033;28;20089;-82
2021/06/26 07:12:37;;;;;;;7.13;4.93;;;;;;;22.10;58.66;101280.38;5036094;28;20101;-82
2021/06/26 07:15:05;;;;;;;6.10;4.90;;;;;;;22.33;60.36;101281.72;5036842;28;20111;-84
2021/06/26 07:17:31;;;;;;;6.72;5.20;;;;;;;22.19;60.20;101281.66;5035970;28;20040;-82
2021/06/26 07:19:58;;;;;;;6.15;5.55;;;;;;;22.24;60.07;101276.88;5075300;28;20093;-83
2021/06/26 07:22:25;;;;;;;6.53;5.00;;;;;;;22.46;58.68;101282.72;5083772;28;20052;-83
2021/06/26 07:24:51;;;;;;;14.10;6.25;;;;;;;22.71;58.30;101279.41;5036741;28;20045;-82
2021/06/26 07:27:18;;;;;;;6.45;4.80;;;;;;;23.05;57.47;101268.41;5052127;28;20090;-83
2021/06/26 07:29:44;;;;;;;8.55;5.47;;;;;;;23.39;55.51;101272.50;5037002;28;20052;-84
2021/06/26 07:32:11;;;;;;;7.15;5.45;;;;;;;23.55;53.74;101265.16;5034453;28;20078;-82
2021/06/26 07:34:38;;;;;;;5.78;5.07;;;;;;;23.29;53.89;101264.16;5053510;28;20049;-82
2021/06/26 07:37:05;;;;;;;5.65;5.05;;;;;;;23.37;55.06;101261.78;5042193;28;20053;-82
2021/06/26 07:39:32;;;;;;;5.97;5.10;;;;;;;23.53;55.45;101262.53;5043145;28;20063;-83
2021/06/26 07:41:58;;;;;;;5.43;4.88;;;;;;;23.66;54.22;101251.84;5039285;28;20040;-83
2021/06/26 07:44:25;;;;;;;5.50;4.93;;;;;;;23.64;54.48;101253.78;5034699;28;20044;-83
2021/06/26 07:46:52;;;;;;;5.15;4.55;;;;;;;23.50;55.33;101251.09;5029965;28;20045;-83
2021/06/26 07:49:18;;;;;;;6.80;4.82;;;;;;;23.30;53.97;101253.25;5059419;28;20041;-83
2021/06/26 07:51:45;;;;;;;5.88;5.07;;;;;;;23.03;54.50;101246.91;5050328;28;20114;-82
2021/06/26 07:54:14;;;;;;;4.32;3.90;;;;;;;22.79;53.84;101251.13;5048950;28;20040;-83
2021/06/26 07:56:40;;;;;;;7.68;5.80;;;;;;;21.80;53.07;101250.72;5035168;28;20048;-82
2021/06/26 07:59:07;;;;;;;6.88;5.85;;;;;;;21.73;53.29;101243.09;5064503;28;20040;-82
2021/06/26 08:01:33;;;;;;;5.50;5.00;;;;;;;21.99;54.42;101247.81;5063686;28;20555;-84
2021/06/26 08:04:02;;;;;;;5.85;5.22;;;;;;;22.59;57.78;101238.88;5035527;28;20535;-82
2021/06/26 08:06:28;;;;;;;5.10;4.60;;;;;;;23.19;54.16;101233.31;5034176;28;20052;-82
2021/06/26 08:08:55;;;;;;;5.30;4.70;;;;;;;23.37;52.59;101234.81;5052265;28;20650;-84
2021/06/26 08:11:22;;;;;;;5.82;4.90;;;;;;;23.31;49.92;101246.91;5046488;28;20424;-83
2021/06/26 08:13:49;;;;;;;5.25;4.75;;;;;;;23.16;51.23;101249.69;5036342;28;20098;-82
2021/06/26 08:16:16;;;;;;;7.15;4.45;;;;;;;23.12;50.04;101248.16;5051518;28;20086;-82
2021/06/26 08:18:43;;;;;;;5.57;5.07;;;;;;;23.18;50.82;101245.94;5035904;28;20071;-83
2021/06/26 08:21:10;;;;;;;5.72;4.22;;;;;;;23.38;50.62;101241.97;5050707;28;20105;-83
2021/06/26 08:23:36;;;;;;;4.75;4.05;;;;;;;23.82;49.64;101235.53;5057254;28;20102;-84
2021/06/26 08:26:03;;;;;;;5.38;4.53;;;;;;;23.93;49.01;101238.34;5038985;28;20048;-83
2021/06/26 08:28:30;;;;;;;4.32;3.92;;;;;;;24.55;48.84;101233.22;5021030;28;20049;-84
2021/06/26 08:30:57;;;;;;;4.90;4.25;;;;;;;24.95;47.47;101233.94;5018660;28;20049;-81
2021/06/26 08:33:23;;;;;;;4.43;3.85;;;;;;;25.24;45.78;101229.19;5057037;28;20494;-80
2021/06/26 08:35:50;;;;;;;4.75;4.13;;;;;;;25.26;44.29;101227.25;5034134;28;20094;-81
2021/06/26 08:38:17;;;;;;;4.50;4.10;;;;;;;25.32;46.45;101235.88;5037745;28;20105;-82
2021/06/26 08:40:45;;;;;;;5.32;4.65;;;;;;;24.95;45.13;101238.50;5055934;28;20037;-80
2021/06/26 08:43:12;;;;;;;4.97;4.57;;;;;;;24.15;47.74;101249.44;5037018;28;20535;-81
2021/06/26 08:45:38;;;;;;;5.03;4.63;;;;;;;23.93;47.83;101241.06;5048268;28;20045;-81
2021/06/26 08:48:06;;;;;;;5.03;4.53;;;;;;;23.60;49.36;101246.84;5049276;28;20078;-81
2021/06/26 08:50:33;;;;;;;5.47;4.70;;;;;;;23.37;47.30;101236.66;5050191;28;20733;-81
2021/06/26 08:52:59;;;;;;;6.35;5.28;;;;;;;23.02;48.88;101235.25;5041245;28;20046;-81
2021/06/26 08:55:26;;;;;;;4.35;3.95;;;;;;;23.16;49.63;101233.53;5039121;28;20185;-80
2021/06/26 08:57:53;;;;;;;4.63;4.18;;;;;;;23.07;46.01;101234.97;5067412;28;20044;-81
2021/06/26 09:00:22;;;;;;;4.57;4.18;;;;;;;23.07;44.11;101228.72;5054243;28;20045;-80
2021/06/26 09:02:49;;;;;;;6.38;4.72;;;;;;;23.33;42.99;101222.53;5051856;28;20080;-80
2021/06/26 09:05:29;;;;;;;4.63;4.13;;;;;;;23.52;41.54;101223.03;5057082;28;20036;-81
2021/06/26 09:08:07;;;;;;;4.55;4.15;;;;;;;24.00;42.21;101236.97;5051759;28;20049;-80
2021/06/26 09:10:34;;;;;;;4.10;3.70;;;;;;;24.26;41.49;101228.94;5058834;28;20041;-80
2021/06/26 09:13:14;;;;;;;3.75;3.35;;;;;;;24.70;42.30;101224.03;5060978;28;20075;-81
2021/06/26 09:15:41;;;;;;;4.07;3.67;;;;;;;24.38;41.71;101223.59;5051576;28;20045;-80
2021/06/26 09:18:13;;;;;;;4.70;4.30;;;;;;;23.90;42.52;101225.06;5049244;28;20132;-81
2021/06/26 09:20:42;;;;;;;4.32;3.78;;;;;;;23.78;45.41;101223.19;5057743;28;20067;-81
2021/06/26 09:23:21;;;;;;;3.88;3.58;;;;;;;23.86;45.92;101227.09;5042585;28;20089;-81
2021/06/26 09:25:51;;;;;;;3.60;3.30;;;;;;;24.21;44.70;101223.84;5056806;28;20521;-80
2021/06/26 09:28:26;;;;;;;4.00;3.60;;;;;;;24.54;43.20;101211.72;5072186;28;20106;-80
2021/06/26 09:30:53;;;;;;;3.92;3.60;;;;;;;24.39;42.29;101214.53;5060609;28;20041;-80
2021/06/26 09:33:26;;;;;;;4.15;3.83;;;;;;;24.50;42.01;101210.22;5067398;28;20105;-80
2021/06/26 09:36:07;;;;;;;3.60;3.30;;;;;;;24.42;40.16;101221.53;5049424;28;20051;-81
2021/06/26 09:38:36;;;;;;;4.43;3.80;;;;;;;24.61;40.18;101216.56;5055662;28;20102;-82
2021/06/26 09:41:16;;;;;;;3.90;3.60;;;;;;;24.82;41.19;101213.34;5045382;28;20052;-81
2021/06/26 09:43:43;;;;;;;3.15;2.95;;;;;;;24.75;37.33;101206.63;5052804;28;20114;-81
2021/06/26 09:46:15;;;;;;;3.78;3.47;;;;;;;23.62;39.12;101201.75;5050569;28;20131;-81
2021/06/26 09:48:49;;;;;;;3.78;3.15;;;;;;;24.66;41.03;101200.91;5060235;28;20041;-81
2021/06/26 09:51:21;;;;;;;3.60;3.08;;;;;;;25.38;38.66;101202.97;5034071;28;20056;-81
2021/06/26 09:53:56;;;;;;;3.28;2.97;;;;;;;25.73;35.93;101198.53;5037373;28;20103;-81
2021/06/26 09:56:24;;;;;;;3.03;2.70;;;;;;;26.04;34.45;101204.31;5050429;28;20061;-81
2021/06/26 09:58:54;;;;;;;3.67;3.05;;;;;;;25.85;32.97;101207.56;5040608;28;20070;-82
2021/06/26 10:01:21;;;;;;;4.45;2.90;;;;;;;26.20;35.86;101202.16;5038968;28;20037;-80
2021/06/26 10:03:48;;;;;;;3.05;2.85;;;;;;;25.79;34.00;101195.34;5068192;28;20041;-83
2021/06/26 10:06:16;;;;;;;3.00;2.80;;;;;;;26.01;34.29;101189.16;5049124;28;20045;-82
2021/06/26 10:08:44;;;;;;;3.45;2.90;;;;;;;26.18;36.32;101196.00;5047919;28;20669;-83
2021/06/26 10:11:12;;;;;;;3.38;3.08;;;;;;;26.49;35.25;101197.22;5042617;28;20040;-82
2021/06/26 10:13:41;;;;;;;3.75;3.45;;;;;;;26.48;34.26;101191.88;5063249;28;20041;-80
2021/06/26 10:16:08;;;;;;;3.75;3.00;;;;;;;26.63;33.54;101194.25;5045575;28;20093;-82
2021/06/26 10:18:35;;;;;;;3.47;3.17;;;;;;;26.67;35.66;101192.19;5039351;28;20068;-81
2021/06/26 10:21:03;;;;;;;4.82;3.33;;;;;;;26.19;33.52;101183.31;5061785;28;20033;-82
2021/06/26 10:23:34;;;;;;;3.72;3.42;;;;;;;26.23;33.38;101182.06;5070449;28;20090;-83
2021/06/26 10:26:01;;;;;;;3.58;3.22;;;;;;;26.22;33.85;101183.91;5048110;28;20045;-82
2021/06/26 10:28:28;;;;;;;3.38;3.08;;;;;;;26.36;35.20;101190.97;5047683;28;20053;-84
2021/06/26 10:31:10;;;;;;;4.20;3.60;;;;;;;25.49;35.50;101190.38;5045084;28;20033;-82
2021/06/26 10:33:38;;;;;;;3.88;3.50;;;;;;;25.62;36.87;101184.03;5053800;28;20045;-82
2021/06/26 10:36:04;;;;;;;4.07;3.75;;;;;;;25.47;37.11;101188.75;5033505;28;20040;-82
2021/06/26 10:38:41;;;;;;;3.50;3.20;;;;;;;25.92;37.68;101181.75;5058094;28;20545;-82
2021/06/26 10:41:21;;;;;;;3.33;3.03;;;;;;;26.34;34.48;101176.69;5044076;28;20037;-83
2021/06/26 10:43:55;;;;;;;2.92;2.67;;;;;;;26.82;33.02;101177.41;5048885;28;20052;-83
2021/06/26 10:46:21;;;;;;;;;;;;;;;27.11;34.12;101179.63;5054572;28;20121;-83
2021/06/26 10:49:02;;;;;;;3.67;2.80;;;;;;;27.37;32.80;101181.03;5052318;28;19920;-83
2021/06/26 10:51:35;;;;;;;3.08;2.78;;;;;;;27.62;32.47;101171.72;5064802;28;20474;-82
2021/06/26 10:54:10;;;;;;;3.40;3.10;;;;;;;27.68;30.62;101175.81;5055630;28;20036;-80
2021/06/26 10:56:37;;;;;;;3.33;3.03;;;;;;;27.01;31.90;101179.47;5036449;28;20044;-81
2021/06/26 10:59:12;;;;;;;3.50;3.20;;;;;;;27.24;32.23;101177.59;5027882;28;20074;-81
2021/06/26 11:01:39;;;;;;;3.33;3.10;;;;;;;26.98;32.72;101168.84;5072217;28;20064;-81
2021/06/26 11:04:11;;;;;;;4.38;3.55;;;;;;;27.23;34.10;101178.59;5052111;28;20040;-80
2021/06/26 11:06:38;;;;;;;3.10;2.80;;;;;;;27.35;33.93;101174.03;5063138;28;20075;-82
2021/06/26 11:09:09;;;;;;;4.55;3.25;;;;;;;27.14;33.57;101168.50;5027770;28;20041;-82
2021/06/26 11:11:40;;;;;;;3.80;3.50;;;;;;;26.73;32.39;101174.53;5026210;28;20639;-80
2021/06/26 11:14:21;;;;;;;3.70;3.40;;;;;;;26.64;34.77;101178.84;5063399;28;20045;-83
2021/06/26 11:16:51;;;;;;;4.93;3.20;;;;;;;26.14;36.66;101190.91;5063759;28;20074;-84
2021/06/26 11:19:19;;;;;;;4.20;3.90;;;;;;;25.67;38.46;101187.28;5043248;28;20044;-84
2021/06/26 11:21:49;;;;;;;3.80;3.50;;;;;;;25.16;40.27;101196.44;5068635;28;20045;-83
2021/06/26 11:24:17;;;;;;;3.88;3.55;;;;;;;25.05;40.23;101190.94;5021341;28;20291;-83
2021/06/26 11:26:47;;;;;;;4.20;3.80;;;;;;;24.92;42.17;101195.47;5034375;28;20174;-83